createdAt,value
2022-09-12T00:01:15.261Z,18.45
2022-09-12T00:03:44.674Z,18.55
2022-09-12T00:06:20.417Z,18.49
2022-09-12T00:08:50.523Z,18.48
2022-09-12T00:11:18.772Z,18.41
2022-09-12T00:13:46.690Z,18.54
2022-09-12T00:16:19.153Z,18.65
2022-09-12T00:18:48.881Z,18.53
2022-09-12T00:21:17.909Z,18.59
2022-09-12T00:23:46.282Z,18.44
2022-09-12T00:26:14.770Z,18.39
2022-09-12T00:28:43.191Z,18.27
2022-09-12T00:31:14.163Z,18.39
2022-09-12T00:33:42.902Z,18.60
2022-09-12T00:36:15.433Z,18.49
2022-09-12T00:38:43.644Z,18.34
2022-09-12T00:41:17.269Z,18.34
2022-09-12T00:43:47.924Z,18.33
2022-09-12T00:46:27.353Z,18.46
2022-09-12T00:49:04.315Z,18.23
2022-09-12T00:51:37.837Z,18.17
2022-09-12T00:54:11.748Z,18.15
2022-09-12T00:56:42.888Z,18.05
2022-09-12T00:59:15.190Z,18.10
2022-09-12T01:01:44.264Z,17.97
2022-09-12T01:04:13.666Z,18.09
2022-09-12T01:06:45.121Z,17.95
2022-09-12T01:09:18.350Z,18.13
2022-09-12T01:11:48.686Z,18.04
2022-09-12T01:14:18.467Z,17.90
2022-09-12T01:16:48.483Z,18.05
2022-09-12T01:19:36.721Z,18.11
2022-09-12T01:22:22.687Z,18.06
2022-09-12T01:25:00.367Z,18.13
2022-09-12T01:27:45.257Z,18.10
2022-09-12T01:30:42.844Z,18.08
2022-09-12T01:33:26.570Z,18.07
2022-09-12T01:36:09.483Z,17.98
2022-09-12T01:38:41.025Z,18.02
2022-09-12T01:41:17.931Z,17.88
2022-09-12T01:43:52.294Z,17.87
2022-09-12T01:46:25.849Z,17.92
2022-09-12T01:48:58.991Z,17.74
2022-09-12T01:51:32.485Z,17.68
2022-09-12T01:54:07.051Z,17.66
2022-09-12T01:56:37.902Z,17.64
2022-09-12T01:59:10.669Z,17.56
2022-09-12T02:01:45.707Z,17.70
2022-09-12T02:04:19.829Z,17.78
2022-09-12T02:06:50.481Z,17.74
2022-09-12T02:09:24.088Z,17.75
2022-09-12T02:11:58.126Z,17.70
2022-09-12T02:14:30.205Z,17.60
2022-09-12T02:17:01.489Z,17.33
2022-09-12T02:19:35.499Z,17.41
2022-09-12T02:22:06.046Z,17.28
2022-09-12T02:24:38.000Z,17.31
2022-09-12T02:27:11.899Z,17.26
2022-09-12T02:29:39.963Z,17.36
2022-09-12T02:32:15.684Z,17.07
2022-09-12T02:34:50.918Z,17.15
2022-09-12T02:37:27.270Z,17.23
2022-09-12T02:39:57.243Z,17.15
2022-09-12T02:42:25.645Z,17.04
2022-09-12T02:44:57.209Z,16.85
2022-09-12T02:47:30.090Z,16.80
2022-09-12T02:50:00.900Z,16.86
2022-09-12T02:52:30.045Z,17.01
2022-09-12T02:54:59.431Z,17.04
2022-09-12T02:57:27.688Z,16.94
2022-09-12T02:59:59.286Z,17.05
2022-09-12T03:02:36.822Z,17.06
2022-09-12T03:05:19.765Z,17.10
2022-09-12T03:08:04.844Z,16.85
2022-09-12T03:10:41.854Z,16.79
2022-09-12T03:13:21.780Z,16.86
2022-09-12T03:16:02.049Z,16.84
2022-09-12T03:18:43.470Z,16.85
2022-09-12T03:21:19.312Z,16.84
2022-09-12T03:23:59.949Z,16.86
2022-09-12T03:26:33.726Z,16.71
2022-09-12T03:29:03.258Z,16.93
2022-09-12T03:31:31.847Z,16.67
2022-09-12T03:34:00.947Z,16.76
2022-09-12T03:36:31.580Z,16.68
2022-09-12T03:38:59.469Z,16.60
2022-09-12T03:41:27.454Z,16.74
2022-09-12T03:43:57.049Z,16.52
2022-09-12T03:46:24.994Z,16.57
2022-09-12T03:48:52.935Z,16.46
2022-09-12T03:51:20.970Z,16.54
2022-09-12T03:53:50.329Z,16.52
2022-09-12T03:56:19.462Z,16.45
2022-09-12T03:58:47.963Z,16.42
2022-09-12T04:01:17.931Z,16.33
2022-09-12T04:03:47.609Z,16.41
2022-09-12T04:06:17.954Z,16.47
2022-09-12T04:08:49.032Z,16.29
2022-09-12T04:11:19.789Z,16.13
2022-09-12T04:13:48.658Z,16.34
2022-09-12T04:16:17.872Z,16.35
2022-09-12T04:18:46.667Z,16.47
2022-09-12T04:21:17.142Z,16.23
2022-09-12T04:23:45.434Z,16.24
2022-09-12T04:26:13.944Z,16.23
2022-09-12T04:28:43.492Z,16.32
2022-09-12T04:31:15.717Z,16.37
2022-09-12T04:33:43.713Z,16.40
2022-09-12T04:36:14.511Z,16.31
2022-09-12T04:38:42.415Z,16.47
2022-09-12T04:41:14.573Z,16.63
2022-09-12T04:43:46.448Z,16.72
2022-09-12T04:46:16.753Z,16.77
2022-09-12T04:48:44.886Z,16.80
2022-09-12T04:51:14.617Z,16.75
2022-09-12T04:53:43.222Z,16.85
2022-09-12T04:56:12.753Z,16.94
2022-09-12T04:58:40.672Z,17.07
2022-09-12T05:01:12.254Z,16.85
2022-09-12T05:03:43.479Z,16.93
2022-09-12T05:06:13.708Z,16.75
2022-09-12T05:08:41.798Z,16.72
2022-09-12T05:11:13.488Z,16.68
2022-09-12T05:13:41.890Z,16.66
2022-09-12T05:16:12.753Z,16.64
2022-09-12T05:18:40.717Z,16.95
2022-09-12T05:21:10.484Z,17.27
2022-09-12T05:23:38.468Z,17.42
2022-09-12T05:26:08.183Z,17.67
2022-09-12T05:28:37.863Z,17.94
2022-09-12T05:31:07.539Z,18.09
2022-09-12T05:33:38.230Z,18.26
2022-09-12T05:36:08.453Z,18.25
2022-09-12T05:38:36.665Z,18.47
2022-09-12T05:41:06.338Z,18.68
2022-09-12T05:43:34.870Z,18.79
2022-09-12T05:46:03.836Z,18.89
2022-09-12T05:48:32.772Z,19.01
2022-09-12T05:51:03.666Z,19.11
2022-09-12T05:53:32.559Z,19.29
2022-09-12T05:56:07.482Z,19.55
2022-09-12T05:58:36.328Z,19.65
2022-09-12T06:01:05.830Z,19.68
2022-09-12T06:03:33.778Z,19.90
2022-09-12T06:06:07.828Z,20.13
2022-09-12T06:08:36.566Z,20.15
2022-09-12T06:11:07.031Z,20.10
2022-09-12T06:13:37.775Z,20.30
2022-09-12T06:16:06.789Z,20.46
2022-09-12T06:18:35.608Z,20.49
2022-09-12T06:21:04.922Z,20.72
2022-09-12T06:23:34.633Z,20.81
2022-09-12T06:26:03.323Z,21.00
2022-09-12T06:28:31.939Z,21.05
2022-09-12T06:31:05.655Z,20.97
2022-09-12T06:33:34.705Z,21.05
2022-09-12T06:36:11.542Z,21.32
2022-09-12T06:38:42.058Z,21.48
2022-09-12T06:41:12.564Z,21.69
2022-09-12T06:43:41.184Z,21.77
2022-09-12T06:46:09.782Z,21.79
2022-09-12T06:48:41.710Z,22.01
2022-09-12T06:51:13.478Z,22.11
2022-09-12T06:53:44.780Z,22.23
2022-09-12T06:56:14.689Z,22.43
2022-09-12T06:58:43.505Z,22.43
2022-09-12T07:01:13.754Z,22.56
2022-09-12T07:03:42.351Z,22.63
2022-09-12T07:06:13.204Z,22.71
2022-09-12T07:08:42.626Z,22.89
2022-09-12T07:11:13.423Z,23.02
2022-09-12T07:13:42.550Z,23.10
2022-09-12T07:16:14.858Z,23.24
2022-09-12T07:18:46.758Z,23.47
2022-09-12T07:21:16.087Z,23.55
2022-09-12T07:23:45.753Z,23.82
2022-09-12T07:26:15.543Z,23.98
2022-09-12T07:28:44.353Z,23.82
2022-09-12T07:31:14.179Z,23.85
2022-09-12T07:33:43.194Z,23.98
2022-09-12T07:36:13.694Z,24.25
2022-09-12T07:38:42.054Z,24.60
2022-09-12T07:41:15.778Z,24.72
2022-09-12T07:43:43.702Z,24.76
2022-09-12T07:46:11.730Z,24.71
2022-09-12T07:48:41.075Z,24.62
2022-09-12T07:51:11.619Z,24.46
2022-09-12T07:53:41.198Z,23.82
2022-09-12T07:56:11.310Z,24.12
2022-09-12T07:58:42.220Z,24.20
2022-09-12T08:01:13.520Z,24.41
2022-09-12T08:03:42.272Z,24.58
2022-09-12T08:06:12.188Z,24.70
2022-09-12T08:08:40.239Z,24.88
2022-09-12T08:11:09.872Z,24.60
2022-09-12T08:13:41.400Z,24.83
2022-09-12T08:16:13.183Z,24.51
2022-09-12T08:18:41.729Z,24.21
2022-09-12T08:21:14.107Z,24.39
2022-09-12T08:23:42.568Z,24.14
2022-09-12T08:26:11.346Z,23.83
2022-09-12T08:28:41.855Z,24.11
2022-09-12T08:31:13.759Z,24.16
2022-09-12T08:33:41.888Z,24.16
2022-09-12T08:36:12.882Z,24.29
2022-09-12T08:38:42.522Z,24.79
2022-09-12T08:41:15.394Z,25.15
2022-09-12T08:44:10.050Z,25.30
2022-09-12T08:46:45.958Z,25.32
2022-09-12T08:49:21.229Z,25.35
2022-09-12T08:51:49.222Z,25.08
2022-09-12T08:54:25.231Z,25.41
2022-09-12T08:56:56.571Z,25.37
2022-09-12T08:59:26.205Z,25.60
2022-09-12T09:01:58.954Z,25.81
2022-09-12T09:04:43.992Z,25.84
2022-09-12T09:07:34.789Z,25.69
2022-09-12T09:10:14.866Z,25.86
2022-09-12T09:12:54.658Z,25.69
2022-09-12T09:15:48.700Z,25.91
2022-09-12T09:18:22.768Z,26.02
2022-09-12T09:20:54.310Z,26.06
2022-09-12T09:23:27.285Z,26.17
2022-09-12T09:26:00.252Z,26.10
2022-09-12T09:28:37.626Z,25.96
2022-09-12T09:31:15.627Z,26.07
2022-09-12T09:33:44.907Z,26.23
2022-09-12T09:36:22.499Z,26.44
2022-09-12T09:38:56.250Z,26.61
2022-09-12T09:41:36.598Z,26.55
2022-09-12T09:44:05.217Z,26.56
2022-09-12T09:46:34.854Z,26.73
2022-09-12T09:49:04.429Z,26.71
2022-09-12T09:51:36.197Z,26.64
2022-09-12T09:54:12.301Z,26.78
2022-09-12T09:56:42.639Z,26.76
2022-09-12T09:59:12.921Z,26.71
2022-09-12T10:01:48.047Z,26.54
2022-09-12T10:04:21.204Z,26.53
2022-09-12T10:06:52.218Z,26.77
2022-09-12T10:09:26.073Z,26.58
2022-09-12T10:11:55.466Z,26.65
2022-09-12T10:14:41.614Z,26.58
2022-09-12T10:17:43.254Z,26.74
2022-09-12T10:20:31.759Z,26.78
2022-09-12T10:23:02.056Z,26.87
2022-09-12T10:25:30.479Z,26.72
2022-09-12T10:28:01.189Z,26.73
2022-09-12T10:30:29.987Z,26.58
2022-09-12T10:33:07.646Z,26.57
2022-09-12T10:35:46.941Z,26.30
2022-09-12T10:38:22.536Z,26.53
2022-09-12T10:40:59.343Z,26.79
2022-09-12T10:43:36.212Z,26.88
2022-09-12T10:46:23.892Z,26.40
2022-09-12T10:49:13.512Z,26.24
2022-09-12T10:51:41.532Z,26.28
2022-09-12T10:54:13.638Z,26.08
2022-09-12T10:56:53.515Z,26.15
2022-09-12T10:59:32.422Z,26.38
2022-09-12T11:02:02.915Z,26.35
2022-09-12T11:04:47.577Z,26.21
2022-09-12T11:07:30.555Z,26.57
2022-09-12T11:10:07.177Z,26.70
2022-09-12T11:12:41.893Z,26.65
2022-09-12T11:15:30.069Z,26.75
2022-09-12T11:18:06.745Z,26.52
2022-09-12T11:20:55.005Z,26.51
2022-09-12T11:24:11.345Z,26.14
2022-09-12T11:26:51.892Z,25.87
2022-09-12T11:29:30.514Z,25.88
2022-09-12T11:32:12.226Z,25.92
2022-09-12T11:34:53.492Z,25.78
2022-09-12T11:37:36.131Z,25.61
2022-09-12T11:40:16.456Z,25.58
2022-09-12T11:42:46.981Z,25.71
2022-09-12T11:45:20.869Z,25.84
2022-09-12T11:47:55.140Z,25.94
2022-09-12T11:50:29.848Z,25.90
2022-09-12T11:53:04.448Z,25.94
2022-09-12T11:55:48.337Z,26.08
2022-09-12T11:58:18.168Z,26.12
2022-09-12T12:00:52.006Z,26.02
2022-09-12T12:03:33.353Z,25.88
2022-09-12T12:06:05.869Z,26.10
2022-09-12T12:08:40.589Z,25.85
2022-09-12T12:11:10.027Z,25.88
2022-09-12T12:13:41.104Z,25.86
2022-09-12T12:16:15.173Z,25.73
2022-09-12T12:18:44.527Z,25.59
2022-09-12T12:21:36.333Z,25.61
2022-09-12T12:24:17.804Z,25.63
2022-09-12T12:26:57.451Z,25.61
2022-09-12T12:29:44.593Z,25.48
2022-09-12T12:32:28.509Z,25.13
2022-09-12T12:35:39.070Z,25.44
2022-09-12T12:38:28.459Z,25.38
2022-09-12T12:41:32.566Z,25.28
2022-09-12T12:44:20.281Z,25.40
2022-09-12T12:47:15.798Z,25.17
2022-09-12T12:49:43.809Z,25.21
2022-09-12T12:52:18.082Z,25.21
2022-09-12T12:54:57.530Z,25.30
2022-09-12T12:57:52.168Z,25.27
2022-09-12T13:00:35.433Z,25.50
2022-09-12T13:03:12.474Z,25.60
2022-09-12T13:05:43.729Z,25.61
2022-09-12T13:08:13.259Z,25.43
2022-09-12T13:10:51.612Z,25.69
2022-09-12T13:13:26.800Z,25.59
2022-09-12T13:15:55.377Z,25.72
2022-09-12T13:18:30.274Z,25.58
2022-09-12T13:21:09.036Z,25.83
2022-09-12T13:23:37.184Z,25.69
2022-09-12T13:26:12.662Z,25.58
2022-09-12T13:28:42.039Z,25.30
2022-09-12T13:31:19.069Z,25.19
2022-09-12T13:33:49.509Z,24.87
2022-09-12T13:36:42.479Z,24.59
2022-09-12T13:39:20.304Z,24.21
2022-09-12T13:42:17.924Z,24.07
2022-09-12T13:44:50.867Z,23.76
2022-09-12T13:47:25.978Z,23.63
2022-09-12T13:49:55.380Z,23.65
2022-09-12T13:52:26.846Z,23.72
2022-09-12T13:54:58.286Z,23.68
2022-09-12T13:57:32.322Z,23.82
2022-09-12T14:00:04.412Z,23.62
2022-09-12T14:02:37.850Z,23.62
2022-09-12T14:05:20.163Z,23.54
2022-09-12T14:07:57.304Z,23.48
2022-09-12T14:10:31.955Z,23.32
2022-09-12T14:13:01.688Z,23.33
2022-09-12T14:15:33.442Z,23.31
2022-09-12T14:18:03.773Z,23.45
2022-09-12T14:20:33.442Z,23.54
2022-09-12T14:23:03.630Z,23.54
2022-09-12T14:25:39.119Z,23.58
2022-09-12T14:28:07.806Z,23.77
2022-09-12T14:30:38.249Z,23.93
2022-09-12T14:33:20.885Z,23.81
2022-09-12T14:35:51.621Z,23.73
2022-09-12T14:38:25.666Z,23.61
2022-09-12T14:41:00.878Z,23.73
2022-09-12T14:43:30.867Z,23.61
2022-09-12T14:46:02.663Z,23.64
2022-09-12T14:48:33.408Z,23.48
2022-09-12T14:51:01.509Z,23.56
2022-09-12T14:53:34.900Z,23.23
2022-09-12T14:56:12.531Z,23.22
2022-09-12T14:58:41.567Z,23.28
2022-09-12T15:01:31.679Z,23.31
2022-09-12T15:03:59.678Z,23.22
2022-09-12T15:06:30.833Z,23.25
2022-09-12T15:09:00.443Z,23.01
2022-09-12T15:11:28.379Z,22.89
2022-09-12T15:13:56.493Z,22.47
2022-09-12T15:16:24.490Z,22.49
2022-09-12T15:18:53.792Z,22.61
2022-09-12T15:21:22.334Z,22.73
2022-09-12T15:23:51.450Z,22.71
2022-09-12T15:26:21.862Z,22.60
2022-09-12T15:28:52.111Z,22.48
2022-09-12T15:31:26.226Z,22.18
2022-09-12T15:33:57.107Z,21.88
2022-09-12T15:36:25.928Z,21.21
2022-09-12T15:38:54.486Z,21.29
2022-09-12T15:41:24.427Z,21.23
2022-09-12T15:43:52.759Z,20.92
2022-09-12T15:46:21.448Z,20.88
2022-09-12T15:48:50.444Z,20.96
2022-09-12T15:51:21.634Z,20.85
2022-09-12T15:53:50.622Z,21.01
2022-09-12T15:56:21.161Z,21.05
2022-09-12T15:58:58.905Z,21.07
2022-09-12T16:01:28.390Z,21.08
2022-09-12T16:03:56.583Z,21.00
2022-09-12T16:06:25.965Z,21.12
2022-09-12T16:08:53.914Z,21.15
2022-09-12T16:11:24.339Z,21.08
2022-09-12T16:13:53.896Z,21.10
2022-09-12T16:16:22.193Z,21.04
2022-09-12T16:18:50.290Z,21.06
2022-09-12T16:21:18.328Z,21.13
2022-09-12T16:23:49.074Z,21.08
2022-09-12T16:26:17.869Z,21.04
2022-09-12T16:28:46.101Z,20.99
2022-09-12T16:31:15.185Z,20.99
2022-09-12T16:33:43.194Z,20.97
2022-09-12T16:36:12.587Z,20.99
2022-09-12T16:38:44.010Z,20.97
2022-09-12T16:41:14.466Z,21.02
2022-09-12T16:43:43.060Z,20.95
2022-09-12T16:46:13.218Z,20.83
2022-09-12T16:48:48.062Z,20.77
2022-09-12T16:51:20.891Z,20.79
2022-09-12T16:53:49.772Z,20.75
2022-09-12T16:56:19.468Z,20.68
2022-09-12T16:58:47.798Z,20.59
2022-09-12T17:01:17.723Z,20.50
2022-09-12T17:03:46.230Z,20.59
2022-09-12T17:06:16.546Z,20.59
2022-09-12T17:08:46.260Z,20.59
2022-09-12T17:11:17.221Z,20.55
2022-09-12T17:14:06.654Z,20.51
2022-09-12T17:16:37.143Z,20.51
2022-09-12T17:19:06.024Z,20.49
2022-09-12T17:21:34.390Z,20.45
2022-09-12T17:24:02.579Z,20.39
2022-09-12T17:26:30.621Z,19.83
2022-09-12T17:28:59.950Z,19.80
2022-09-12T17:31:28.003Z,19.85
2022-09-12T17:33:58.358Z,19.87
2022-09-12T17:36:26.746Z,19.86
2022-09-12T17:38:55.370Z,19.73
2022-09-12T17:41:25.616Z,19.65
2022-09-12T17:43:57.419Z,19.59
2022-09-12T17:46:31.838Z,19.41
2022-09-12T17:49:01.052Z,19.42
2022-09-12T17:51:30.847Z,19.51
2022-09-12T17:54:01.195Z,19.18
2022-09-12T17:56:30.837Z,19.26
2022-09-12T17:59:00.237Z,19.16
2022-09-12T18:01:47.930Z,19.24
2022-09-12T18:04:16.591Z,19.18
2022-09-12T18:06:48.184Z,19.26
2022-09-12T18:09:18.060Z,19.27
2022-09-12T18:11:46.340Z,19.32
2022-09-12T18:14:14.717Z,19.36
2022-09-12T18:16:44.332Z,19.36
2022-09-12T18:19:12.662Z,19.42
2022-09-12T18:21:41.208Z,19.33
2022-09-12T18:24:10.866Z,19.26
2022-09-12T18:26:39.202Z,19.12
2022-09-12T18:29:07.845Z,19.32
2022-09-12T18:31:36.047Z,19.34
2022-09-12T18:34:06.302Z,19.26
2022-09-12T18:36:34.308Z,19.30
2022-09-12T18:39:02.265Z,19.30
2022-09-12T18:41:30.188Z,19.27
2022-09-12T18:43:59.784Z,19.31
2022-09-12T18:46:29.037Z,19.20
2022-09-12T18:48:59.722Z,19.17
2022-09-12T18:51:31.625Z,19.08
2022-09-12T18:54:01.494Z,19.14
2022-09-12T18:56:33.015Z,18.94
2022-09-12T18:59:01.896Z,19.16
2022-09-12T19:01:31.715Z,19.19
2022-09-12T19:04:01.008Z,19.18
2022-09-12T19:06:32.224Z,19.16
2022-09-12T19:09:05.130Z,19.15
2022-09-12T19:11:35.739Z,19.15
2022-09-12T19:14:03.675Z,19.11
2022-09-12T19:16:31.605Z,19.00
2022-09-12T19:19:00.145Z,19.12
2022-09-12T19:21:31.350Z,19.09
2022-09-12T19:24:02.225Z,19.09
2022-09-12T19:26:30.864Z,19.09
2022-09-12T19:28:59.458Z,18.99
2022-09-12T19:31:27.860Z,19.07
2022-09-12T19:34:01.096Z,19.01
2022-09-12T19:36:47.273Z,19.05
2022-09-12T19:39:16.961Z,18.99
2022-09-12T19:41:45.651Z,18.89
2022-09-12T19:44:13.888Z,18.72
2022-09-12T19:46:41.924Z,18.63
2022-09-12T19:49:11.418Z,18.56
2022-09-12T19:51:41.050Z,18.39
2022-09-12T19:54:09.262Z,18.18
2022-09-12T19:56:37.301Z,18.40
2022-09-12T19:59:05.254Z,18.37
2022-09-12T20:01:33.292Z,18.24
2022-09-12T20:04:01.245Z,17.79
2022-09-12T20:06:29.365Z,18.07
2022-09-12T20:08:59.152Z,18.15
2022-09-12T20:11:27.172Z,18.18
2022-09-12T20:13:55.226Z,18.06
2022-09-12T20:16:25.819Z,17.98
2022-09-12T20:18:55.612Z,18.03
2022-09-12T20:21:31.373Z,17.83
2022-09-12T20:24:06.833Z,17.71
2022-09-12T20:26:35.119Z,17.85
2022-09-12T20:29:03.746Z,17.85
2022-09-12T20:31:32.120Z,17.88
2022-09-12T20:34:00.751Z,17.84
2022-09-12T20:36:29.039Z,17.80
2022-09-12T20:39:00.162Z,17.78
2022-09-12T20:41:31.710Z,17.78
2022-09-12T20:44:00.092Z,17.76
2022-09-12T20:46:29.601Z,17.74
2022-09-12T20:48:58.599Z,17.74
2022-09-12T20:51:29.646Z,17.74
2022-09-12T20:53:58.567Z,17.62
2022-09-12T20:56:27.687Z,17.39
2022-09-12T20:58:57.494Z,17.54
2022-09-12T21:01:27.102Z,17.59
2022-09-12T21:03:55.310Z,17.63
2022-09-12T21:06:23.984Z,17.64
2022-09-12T21:08:52.177Z,17.62
2022-09-12T21:11:21.326Z,17.33
2022-09-12T21:13:49.440Z,17.48
2022-09-12T21:16:21.102Z,17.47
2022-09-12T21:18:54.029Z,17.52
2022-09-12T21:21:22.318Z,17.40
2022-09-12T21:23:50.861Z,17.36
2022-09-12T21:26:19.401Z,17.37
2022-09-12T21:28:47.518Z,17.39
2022-09-12T21:32:14.053Z,17.34
2022-09-12T21:34:43.639Z,17.21
2022-09-12T21:37:11.438Z,17.22
2022-09-12T21:39:39.347Z,16.92
2022-09-12T21:42:07.395Z,17.19
2022-09-12T21:44:35.311Z,17.08
2022-09-12T21:47:03.141Z,17.08
2022-09-12T21:49:31.010Z,17.08
2022-09-12T21:52:00.247Z,16.99
2022-09-12T21:54:28.023Z,17.09
2022-09-12T21:56:55.918Z,17.08
2022-09-12T21:59:23.688Z,17.04
2022-09-12T22:01:51.518Z,17.03
2022-09-12T22:04:19.282Z,17.01
2022-09-12T22:06:47.031Z,16.96
2022-09-12T22:09:16.935Z,16.91
2022-09-12T22:11:45.080Z,16.80
2022-09-12T22:14:12.848Z,16.82
2022-09-12T22:16:40.591Z,16.70
2022-09-12T22:19:08.497Z,16.80
2022-09-12T22:21:56.199Z,16.75
2022-09-12T22:24:29.942Z,16.74
2022-09-12T22:26:59.346Z,16.46
2022-09-12T22:29:27.163Z,16.60
2022-09-12T22:31:54.867Z,16.43
2022-09-12T22:34:22.775Z,16.48
2022-09-12T22:36:50.468Z,16.47
2022-09-12T22:39:18.284Z,16.48
2022-09-12T22:41:47.544Z,16.28
2022-09-12T22:44:17.756Z,16.30
2022-09-12T22:46:45.927Z,16.34
2022-09-12T22:49:13.859Z,16.35
2022-09-12T22:51:41.538Z,16.37
2022-09-12T22:54:10.940Z,16.28
2022-09-12T22:56:39.657Z,16.30
2022-09-12T22:59:08.933Z,16.32
2022-09-12T23:01:37.056Z,16.26
2022-09-12T23:04:05.307Z,16.22
2022-09-12T23:06:33.059Z,16.15
2022-09-12T23:09:00.779Z,16.21
2022-09-12T23:11:28.816Z,16.27
2022-09-12T23:13:56.524Z,16.21
2022-09-12T23:16:28.341Z,16.23
2022-09-12T23:18:56.628Z,16.21
2022-09-12T23:21:24.463Z,16.18
2022-09-12T23:23:52.295Z,16.11
2022-09-12T23:26:22.504Z,16.06
2022-09-12T23:28:52.855Z,16.03
2022-09-12T23:31:21.192Z,15.98
2022-09-12T23:33:51.105Z,15.90
2022-09-12T23:36:18.841Z,15.83
2022-09-12T23:38:47.812Z,15.83
2022-09-12T23:41:16.901Z,15.83
2022-09-12T23:43:45.568Z,15.77
2022-09-12T23:46:14.495Z,15.74
2022-09-12T23:48:43.293Z,15.68
2022-09-12T23:51:13.140Z,15.57
2022-09-12T23:53:41.224Z,15.52
2022-09-12T23:56:09.480Z,15.48
2022-09-12T23:58:38.117Z,15.43
